sensor_id;sensor_type;location;lat;lon;timestamp;P1;durP1;ratioP1;P2;durP2;ratioP2
38901;SDS011;24661;53.566;9.910;2022-12-29T00:00:04;5.87;;;2.47;;
38901;SDS011;24661;53.566;9.910;2022-12-29T00:02:31;4.07;;;2.60;;
38901;SDS011;24661;53.566;9.910;2022-12-29T00:04:56;2.93;;;2.60;;
38901;SDS011;24661;53.566;9.910;2022-12-29T00:07:22;6.47;;;3.53;;
38901;SDS011;24661;53.566;9.910;2022-12-29T00:09:48;5.07;;;2.93;;
38901;SDS011;24661;53.566;9.910;2022-12-29T00:12:13;3.73;;;2.87;;
38901;SDS011;24661;53.566;9.910;2022-12-29T00:14:39;3.57;;;2.60;;
38901;SDS011;24661;53.566;9.910;2022-12-29T00:17:23;7.40;;;2.70;;
38901;SDS011;24661;53.566;9.910;2022-12-29T00:19:49;3.23;;;2.93;;
38901;SDS011;24661;53.566;9.910;2022-12-29T00:22:34;3.17;;;2.60;;
38901;SDS011;24661;53.566;9.910;2022-12-29T00:25:19;4.00;;;2.67;;
38901;SDS011;24661;53.566;9.910;2022-12-29T00:28:04;5.20;;;2.80;;
38901;SDS011;24661;53.566;9.910;2022-12-29T00:30:51;6.20;;;3.90;;
38901;SDS011;24661;53.566;9.910;2022-12-29T00:33:35;3.17;;;2.63;;
38901;SDS011;24661;53.566;9.910;2022-12-29T00:36:36;3.13;;;2.70;;
38901;SDS011;24661;53.566;9.910;2022-12-29T00:39:15;3.47;;;3.17;;
38901;SDS011;24661;53.566;9.910;2022-12-29T00:42:05;3.43;;;2.83;;
38901;SDS011;24661;53.566;9.910;2022-12-29T00:44:51;5.57;;;3.10;;
38901;SDS011;24661;53.566;9.910;2022-12-29T00:47:17;3.40;;;2.83;;
38901;SDS011;24661;53.566;9.910;2022-12-29T00:49:43;13.43;;;5.57;;
38901;SDS011;24661;53.566;9.910;2022-12-29T00:52:09;4.77;;;3.13;;
38901;SDS011;24661;53.566;9.910;2022-12-29T00:54:37;4.00;;;2.87;;
38901;SDS011;24661;53.566;9.910;2022-12-29T00:57:04;3.10;;;2.80;;
38901;SDS011;24661;53.566;9.910;2022-12-29T00:59:31;4.60;;;2.47;;
38901;SDS011;24661;53.566;9.910;2022-12-29T01:01:59;3.30;;;2.43;;
38901;SDS011;24661;53.566;9.910;2022-12-29T01:04:25;3.30;;;2.07;;
38901;SDS011;24661;53.566;9.910;2022-12-29T01:06:51;4.03;;;2.80;;
38901;SDS011;24661;53.566;9.910;2022-12-29T01:09:17;4.33;;;3.07;;
38901;SDS011;24661;53.566;9.910;2022-12-29T01:12:02;3.43;;;2.70;;
38901;SDS011;24661;53.566;9.910;2022-12-29T01:14:29;2.90;;;2.60;;
38901;SDS011;24661;53.566;9.910;2022-12-29T01:16:54;3.30;;;2.90;;
38901;SDS011;24661;53.566;9.910;2022-12-29T01:19:21;3.40;;;2.43;;
38901;SDS011;24661;53.566;9.910;2022-12-29T01:21:47;2.67;;;2.37;;
38901;SDS011;24661;53.566;9.910;2022-12-29T01:24:13;3.17;;;2.87;;
38901;SDS011;24661;53.566;9.910;2022-12-29T01:26:43;4.83;;;2.90;;
38901;SDS011;24661;53.566;9.910;2022-12-29T01:29:08;3.80;;;3.10;;
38901;SDS011;24661;53.566;9.910;2022-12-29T01:31:35;5.47;;;2.53;;
38901;SDS011;24661;53.566;9.910;2022-12-29T01:34:01;3.13;;;2.83;;
38901;SDS011;24661;53.566;9.910;2022-12-29T01:36:26;3.73;;;2.83;;
38901;SDS011;24661;53.566;9.910;2022-12-29T01:38:52;3.30;;;3.00;;
38901;SDS011;24661;53.566;9.910;2022-12-29T01:41:18;4.10;;;3.03;;
38901;SDS011;24661;53.566;9.910;2022-12-29T01:46:21;2.83;;;2.60;;
38901;SDS011;24661;53.566;9.910;2022-12-29T01:48:55;3.87;;;3.07;;
38901;SDS011;24661;53.566;9.910;2022-12-29T01:51:32;4.20;;;3.47;;
38901;SDS011;24661;53.566;9.910;2022-12-29T01:54:16;3.73;;;3.43;;
38901;SDS011;24661;53.566;9.910;2022-12-29T01:56:55;7.90;;;3.23;;
38901;SDS011;24661;53.566;9.910;2022-12-29T01:59:28;4.43;;;3.50;;
38901;SDS011;24661;53.566;9.910;2022-12-29T02:01:59;4.73;;;3.67;;
38901;SDS011;24661;53.566;9.910;2022-12-29T02:04:26;7.70;;;3.90;;
38901;SDS011;24661;53.566;9.910;2022-12-29T02:06:57;4.43;;;3.97;;
38901;SDS011;24661;53.566;9.910;2022-12-29T02:09:28;4.60;;;4.20;;
38901;SDS011;24661;53.566;9.910;2022-12-29T02:11:54;4.13;;;3.70;;
38901;SDS011;24661;53.566;9.910;2022-12-29T02:14:19;3.93;;;3.60;;
38901;SDS011;24661;53.566;9.910;2022-12-29T02:47:48;3.20;;;2.50;;
38901;SDS011;24661;53.566;9.910;2022-12-29T02:50:20;3.07;;;2.87;;
38901;SDS011;24661;53.566;9.910;2022-12-29T02:52:52;3.27;;;2.90;;
38901;SDS011;24661;53.566;9.910;2022-12-29T02:55:24;2.40;;;2.20;;
38901;SDS011;24661;53.566;9.910;2022-12-29T02:58:06;2.93;;;2.70;;
38901;SDS011;24661;53.566;9.910;2022-12-29T03:00:55;2.73;;;2.53;;
38901;SDS011;24661;53.566;9.910;2022-12-29T03:03:49;2.53;;;2.33;;
38901;SDS011;24661;53.566;9.910;2022-12-29T03:06:53;3.07;;;2.73;;
38901;SDS011;24661;53.566;9.910;2022-12-29T03:09:42;2.53;;;2.33;;
38901;SDS011;24661;53.566;9.910;2022-12-29T03:15:21;2.23;;;2.10;;
38901;SDS011;24661;53.566;9.910;2022-12-29T03:18:13;2.80;;;2.47;;
38901;SDS011;24661;53.566;9.910;2022-12-29T03:20:52;2.67;;;2.30;;
38901;SDS011;24661;53.566;9.910;2022-12-29T03:23:19;3.13;;;2.10;;
38901;SDS011;24661;53.566;9.910;2022-12-29T03:25:47;2.33;;;2.13;;
38901;SDS011;24661;53.566;9.910;2022-12-29T03:28:18;2.53;;;2.10;;
38901;SDS011;24661;53.566;9.910;2022-12-29T03:30:48;4.53;;;2.43;;
38901;SDS011;24661;53.566;9.910;2022-12-29T03:33:18;2.40;;;2.20;;
38901;SDS011;24661;53.566;9.910;2022-12-29T03:35:49;4.30;;;2.40;;
38901;SDS011;24661;53.566;9.910;2022-12-29T03:38:42;3.47;;;2.00;;
38901;SDS011;24661;53.566;9.910;2022-12-29T03:41:13;4.97;;;2.50;;
38901;SDS011;24661;53.566;9.910;2022-12-29T03:43:42;3.50;;;2.67;;
38901;SDS011;24661;53.566;9.910;2022-12-29T03:46:07;2.50;;;2.03;;
38901;SDS011;24661;53.566;9.910;2022-12-29T03:48:33;3.20;;;2.20;;
38901;SDS011;24661;53.566;9.910;2022-12-29T03:50:58;3.23;;;1.97;;
38901;SDS011;24661;53.566;9.910;2022-12-29T03:53:24;2.67;;;2.00;;
38901;SDS011;24661;53.566;9.910;2022-12-29T03:55:50;2.27;;;2.07;;
38901;SDS011;24661;53.566;9.910;2022-12-29T03:58:16;2.27;;;2.07;;
38901;SDS011;24661;53.566;9.910;2022-12-29T04:00:41;2.20;;;2.00;;
38901;SDS011;24661;53.566;9.910;2022-12-29T04:03:07;2.20;;;2.00;;
38901;SDS011;24661;53.566;9.910;2022-12-29T04:05:33;3.50;;;1.93;;
38901;SDS011;24661;53.566;9.910;2022-12-29T04:07:58;2.70;;;2.10;;
38901;SDS011;24661;53.566;9.910;2022-12-29T04:10:25;1.50;;;1.40;;
38901;SDS011;24661;53.566;9.910;2022-12-29T04:12:50;4.47;;;1.80;;
38901;SDS011;24661;53.566;9.910;2022-12-29T04:15:16;3.57;;;1.90;;
38901;SDS011;24661;53.566;9.910;2022-12-29T04:17:42;1.93;;;1.47;;
38901;SDS011;24661;53.566;9.910;2022-12-29T04:20:08;1.50;;;1.40;;
38901;SDS011;24661;53.566;9.910;2022-12-29T04:23:13;2.60;;;1.50;;
38901;SDS011;24661;53.566;9.910;2022-12-29T04:25:38;2.13;;;1.57;;
38901;SDS011;24661;53.566;9.910;2022-12-29T04:28:03;1.67;;;1.30;;
38901;SDS011;24661;53.566;9.910;2022-12-29T04:30:30;1.80;;;1.40;;
38901;SDS011;24661;53.566;9.910;2022-12-29T04:32:56;1.30;;;0.90;;
38901;SDS011;24661;53.566;9.910;2022-12-29T04:35:21;3.13;;;1.80;;
38901;SDS011;24661;53.566;9.910;2022-12-29T04:37:47;1.50;;;1.07;;
38901;SDS011;24661;53.566;9.910;2022-12-29T04:40:12;1.90;;;1.07;;
38901;SDS011;24661;53.566;9.910;2022-12-29T04:42:38;1.20;;;1.10;;
38901;SDS011;24661;53.566;9.910;2022-12-29T04:45:04;1.10;;;1.00;;
38901;SDS011;24661;53.566;9.910;2022-12-29T04:47:30;1.10;;;0.90;;
38901;SDS011;24661;53.566;9.910;2022-12-29T04:49:55;1.50;;;1.40;;
38901;SDS011;24661;53.566;9.910;2022-12-29T04:52:21;1.37;;;1.27;;
38901;SDS011;24661;53.566;9.910;2022-12-29T04:54:47;2.33;;;1.00;;
38901;SDS011;24661;53.566;9.910;2022-12-29T04:57:12;1.10;;;1.00;;
38901;SDS011;24661;53.566;9.910;2022-12-29T04:59:38;2.20;;;0.87;;
38901;SDS011;24661;53.566;9.910;2022-12-29T05:02:03;1.77;;;1.10;;
38901;SDS011;24661;53.566;9.910;2022-12-29T05:04:29;1.00;;;0.90;;
38901;SDS011;24661;53.566;9.910;2022-12-29T05:06:55;1.20;;;1.10;;
38901;SDS011;24661;53.566;9.910;2022-12-29T05:09:20;1.03;;;0.90;;
38901;SDS011;24661;53.566;9.910;2022-12-29T05:11:46;1.13;;;0.93;;
38901;SDS011;24661;53.566;9.910;2022-12-29T05:14:11;1.50;;;1.00;;
38901;SDS011;24661;53.566;9.910;2022-12-29T05:16:37;1.67;;;1.13;;
38901;SDS011;24661;53.566;9.910;2022-12-29T05:19:03;1.20;;;1.10;;
38901;SDS011;24661;53.566;9.910;2022-12-29T05:21:29;1.80;;;1.00;;
38901;SDS011;24661;53.566;9.910;2022-12-29T05:23:54;1.27;;;1.17;;
38901;SDS011;24661;53.566;9.910;2022-12-29T05:26:20;1.60;;;1.50;;
38901;SDS011;24661;53.566;9.910;2022-12-29T05:28:46;2.13;;;1.90;;
38901;SDS011;24661;53.566;9.910;2022-12-29T05:31:11;1.77;;;1.67;;
38901;SDS011;24661;53.566;9.910;2022-12-29T05:33:37;1.83;;;1.70;;
38901;SDS011;24661;53.566;9.910;2022-12-29T05:36:03;2.97;;;1.43;;
38901;SDS011;24661;53.566;9.910;2022-12-29T05:38:30;3.63;;;1.63;;
38901;SDS011;24661;53.566;9.910;2022-12-29T05:40:55;2.10;;;1.23;;
38901;SDS011;24661;53.566;9.910;2022-12-29T05:43:21;2.20;;;1.30;;
38901;SDS011;24661;53.566;9.910;2022-12-29T05:45:48;2.60;;;1.40;;
38901;SDS011;24661;53.566;9.910;2022-12-29T05:48:14;2.40;;;1.50;;
38901;SDS011;24661;53.566;9.910;2022-12-29T05:50:40;2.03;;;1.40;;
38901;SDS011;24661;53.566;9.910;2022-12-29T05:53:06;1.77;;;1.67;;
38901;SDS011;24661;53.566;9.910;2022-12-29T05:55:31;1.77;;;1.30;;
38901;SDS011;24661;53.566;9.910;2022-12-29T05:57:57;1.43;;;1.33;;
38901;SDS011;24661;53.566;9.910;2022-12-29T06:00:23;2.77;;;1.40;;
38901;SDS011;24661;53.566;9.910;2022-12-29T06:02:48;1.67;;;0.90;;
38901;SDS011;24661;53.566;9.910;2022-12-29T06:05:14;1.60;;;1.20;;
38901;SDS011;24661;53.566;9.910;2022-12-29T06:07:40;2.37;;;0.93;;
38901;SDS011;24661;53.566;9.910;2022-12-29T06:10:06;1.97;;;1.30;;
38901;SDS011;24661;53.566;9.910;2022-12-29T06:12:32;1.87;;;1.10;;
38901;SDS011;24661;53.566;9.910;2022-12-29T06:14:57;1.00;;;1.00;;
38901;SDS011;24661;53.566;9.910;2022-12-29T06:17:23;2.27;;;1.10;;
38901;SDS011;24661;53.566;9.910;2022-12-29T06:19:49;1.40;;;1.07;;
38901;SDS011;24661;53.566;9.910;2022-12-29T06:22:14;1.90;;;1.20;;
38901;SDS011;24661;53.566;9.910;2022-12-29T06:24:40;3.43;;;1.10;;
38901;SDS011;24661;53.566;9.910;2022-12-29T06:27:06;1.57;;;1.20;;
38901;SDS011;24661;53.566;9.910;2022-12-29T06:29:32;2.50;;;1.23;;
38901;SDS011;24661;53.566;9.910;2022-12-29T06:31:57;0.87;;;0.87;;
38901;SDS011;24661;53.566;9.910;2022-12-29T06:34:23;1.20;;;1.13;;
38901;SDS011;24661;53.566;9.910;2022-12-29T06:36:50;1.90;;;1.20;;
38901;SDS011;24661;53.566;9.910;2022-12-29T06:39:16;2.40;;;1.33;;
38901;SDS011;24661;53.566;9.910;2022-12-29T06:41:41;4.17;;;1.73;;
38901;SDS011;24661;53.566;9.910;2022-12-29T06:44:07;3.30;;;1.33;;
38901;SDS011;24661;53.566;9.910;2022-12-29T06:46:33;2.33;;;1.20;;
38901;SDS011;24661;53.566;9.910;2022-12-29T06:48:58;4.33;;;1.13;;
38901;SDS011;24661;53.566;9.910;2022-12-29T06:51:24;1.30;;;1.20;;
38901;SDS011;24661;53.566;9.910;2022-12-29T06:53:49;1.03;;;1.00;;
38901;SDS011;24661;53.566;9.910;2022-12-29T06:56:16;1.00;;;1.00;;
38901;SDS011;24661;53.566;9.910;2022-12-29T06:58:41;2.90;;;1.07;;
38901;SDS011;24661;53.566;9.910;2022-12-29T07:01:07;1.20;;;1.10;;
38901;SDS011;24661;53.566;9.910;2022-12-29T07:03:33;2.80;;;1.27;;
38901;SDS011;24661;53.566;9.910;2022-12-29T07:05:58;4.10;;;1.00;;
38901;SDS011;24661;53.566;9.910;2022-12-29T07:08:24;1.20;;;1.10;;
38901;SDS011;24661;53.566;9.910;2022-12-29T07:10:50;1.10;;;0.90;;
38901;SDS011;24661;53.566;9.910;2022-12-29T07:13:16;4.70;;;1.33;;
38901;SDS011;24661;53.566;9.910;2022-12-29T07:15:41;1.47;;;1.20;;
38901;SDS011;24661;53.566;9.910;2022-12-29T07:18:07;0.90;;;0.90;;
38901;SDS011;24661;53.566;9.910;2022-12-29T07:20:33;1.70;;;0.97;;
38901;SDS011;24661;53.566;9.910;2022-12-29T07:22:59;1.47;;;1.27;;
38901;SDS011;24661;53.566;9.910;2022-12-29T07:25:24;1.33;;;1.23;;
38901;SDS011;24661;53.566;9.910;2022-12-29T07:27:50;2.60;;;1.00;;
38901;SDS011;24661;53.566;9.910;2022-12-29T07:30:16;2.10;;;0.97;;
38901;SDS011;24661;53.566;9.910;2022-12-29T07:32:42;1.20;;;1.10;;
38901;SDS011;24661;53.566;9.910;2022-12-29T07:35:07;1.27;;;1.00;;
38901;SDS011;24661;53.566;9.910;2022-12-29T07:37:34;1.77;;;1.20;;
38901;SDS011;24661;53.566;9.910;2022-12-29T07:40:00;1.77;;;1.50;;
38901;SDS011;24661;53.566;9.910;2022-12-29T07:42:27;5.00;;;1.37;;
38901;SDS011;24661;53.566;9.910;2022-12-29T07:44:53;3.37;;;1.20;;
38901;SDS011;24661;53.566;9.910;2022-12-29T07:47:18;3.20;;;1.90;;
38901;SDS011;24661;53.566;9.910;2022-12-29T07:49:44;1.90;;;1.30;;
38901;SDS011;24661;53.566;9.910;2022-12-29T07:52:10;5.50;;;1.40;;
38901;SDS011;24661;53.566;9.910;2022-12-29T07:54:35;4.10;;;1.87;;
38901;SDS011;24661;53.566;9.910;2022-12-29T07:57:01;4.37;;;3.33;;
38901;SDS011;24661;53.566;9.910;2022-12-29T07:59:27;2.30;;;1.37;;
38901;SDS011;24661;53.566;9.910;2022-12-29T08:01:52;2.73;;;1.70;;
38901;SDS011;24661;53.566;9.910;2022-12-29T08:04:18;2.17;;;1.30;;
38901;SDS011;24661;53.566;9.910;2022-12-29T08:06:44;1.10;;;0.97;;
38901;SDS011;24661;53.566;9.910;2022-12-29T08:09:10;1.20;;;0.97;;
38901;SDS011;24661;53.566;9.910;2022-12-29T08:11:36;5.67;;;1.17;;
38901;SDS011;24661;53.566;9.910;2022-12-29T08:14:02;1.90;;;1.27;;
38901;SDS011;24661;53.566;9.910;2022-12-29T08:16:28;3.03;;;0.87;;
38901;SDS011;24661;53.566;9.910;2022-12-29T08:18:54;2.90;;;1.43;;
38901;SDS011;24661;53.566;9.910;2022-12-29T08:21:19;0.90;;;0.87;;
38901;SDS011;24661;53.566;9.910;2022-12-29T08:23:45;1.20;;;1.10;;
38901;SDS011;24661;53.566;9.910;2022-12-29T08:26:12;4.00;;;1.33;;
38901;SDS011;24661;53.566;9.910;2022-12-29T08:28:38;2.33;;;1.10;;
38901;SDS011;24661;53.566;9.910;2022-12-29T08:31:04;1.20;;;1.10;;
38901;SDS011;24661;53.566;9.910;2022-12-29T08:36:00;1.13;;;1.10;;
38901;SDS011;24661;53.566;9.910;2022-12-29T08:38:27;2.57;;;1.47;;
38901;SDS011;24661;53.566;9.910;2022-12-29T08:40:54;3.57;;;1.40;;
38901;SDS011;24661;53.566;9.910;2022-12-29T08:43:21;2.00;;;1.37;;
38901;SDS011;24661;53.566;9.910;2022-12-29T08:45:46;2.37;;;1.10;;
38901;SDS011;24661;53.566;9.910;2022-12-29T08:48:12;13.97;;;8.70;;
38901;SDS011;24661;53.566;9.910;2022-12-29T08:50:38;3.43;;;1.30;;
38901;SDS011;24661;53.566;9.910;2022-12-29T08:53:03;2.53;;;1.53;;
38901;SDS011;24661;53.566;9.910;2022-12-29T08:55:29;1.47;;;1.00;;
38901;SDS011;24661;53.566;9.910;2022-12-29T08:57:55;2.10;;;1.27;;
38901;SDS011;24661;53.566;9.910;2022-12-29T09:00:21;1.17;;;1.00;;
38901;SDS011;24661;53.566;9.910;2022-12-29T09:02:46;3.97;;;1.30;;
38901;SDS011;24661;53.566;9.910;2022-12-29T09:05:12;1.93;;;0.97;;
38901;SDS011;24661;53.566;9.910;2022-12-29T09:07:38;2.57;;;1.03;;
38901;SDS011;24661;53.566;9.910;2022-12-29T09:10:04;4.00;;;0.80;;
38901;SDS011;24661;53.566;9.910;2022-12-29T09:12:30;1.90;;;1.00;;
38901;SDS011;24661;53.566;9.910;2022-12-29T09:14:55;5.27;;;0.90;;
38901;SDS011;24661;53.566;9.910;2022-12-29T09:17:21;1.23;;;1.00;;
38901;SDS011;24661;53.566;9.910;2022-12-29T09:20:06;2.63;;;1.03;;
38901;SDS011;24661;53.566;9.910;2022-12-29T09:22:32;0.83;;;0.73;;
38901;SDS011;24661;53.566;9.910;2022-12-29T09:24:57;9.10;;;0.80;;
38901;SDS011;24661;53.566;9.910;2022-12-29T09:27:23;3.03;;;0.70;;
38901;SDS011;24661;53.566;9.910;2022-12-29T09:29:49;4.37;;;0.90;;
38901;SDS011;24661;53.566;9.910;2022-12-29T09:32:14;3.40;;;0.73;;
38901;SDS011;24661;53.566;9.910;2022-12-29T09:34:40;3.00;;;0.93;;
38901;SDS011;24661;53.566;9.910;2022-12-29T09:37:06;3.10;;;0.87;;
38901;SDS011;24661;53.566;9.910;2022-12-29T09:39:31;4.03;;;1.10;;
38901;SDS011;24661;53.566;9.910;2022-12-29T09:42:08;2.53;;;1.27;;
38901;SDS011;24661;53.566;9.910;2022-12-29T09:44:56;4.63;;;2.00;;
38901;SDS011;24661;53.566;9.910;2022-12-29T09:47:27;2.83;;;0.90;;
38901;SDS011;24661;53.566;9.910;2022-12-29T09:49:54;3.37;;;0.90;;
38901;SDS011;24661;53.566;9.910;2022-12-29T09:54:57;8.73;;;1.07;;
38901;SDS011;24661;53.566;9.910;2022-12-29T09:57:32;2.00;;;1.37;;
38901;SDS011;24661;53.566;9.910;2022-12-29T10:00:05;3.13;;;0.90;;
38901;SDS011;24661;53.566;9.910;2022-12-29T10:02:38;4.47;;;1.00;;
38901;SDS011;24661;53.566;9.910;2022-12-29T10:05:17;4.87;;;1.30;;
38901;SDS011;24661;53.566;9.910;2022-12-29T10:08:05;3.67;;;0.93;;
38901;SDS011;24661;53.566;9.910;2022-12-29T10:10:57;4.30;;;0.90;;
38901;SDS011;24661;53.566;9.910;2022-12-29T10:14:08;5.57;;;1.50;;
38901;SDS011;24661;53.566;9.910;2022-12-29T10:21:47;5.60;;;1.97;;
38901;SDS011;24661;53.566;9.910;2022-12-29T10:24:18;6.50;;;1.80;;
38901;SDS011;24661;53.566;9.910;2022-12-29T10:26:46;6.30;;;1.53;;
38901;SDS011;24661;53.566;9.910;2022-12-29T10:29:17;7.87;;;1.40;;
38901;SDS011;24661;53.566;9.910;2022-12-29T10:35:03;5.23;;;1.00;;
38901;SDS011;24661;53.566;9.910;2022-12-29T10:37:40;4.77;;;1.67;;
38901;SDS011;24661;53.566;9.910;2022-12-29T10:40:25;4.20;;;1.30;;
38901;SDS011;24661;53.566;9.910;2022-12-29T10:42:57;7.30;;;1.60;;
38901;SDS011;24661;53.566;9.910;2022-12-29T10:45:24;4.40;;;1.07;;
38901;SDS011;24661;53.566;9.910;2022-12-29T10:47:59;8.43;;;1.47;;
38901;SDS011;24661;53.566;9.910;2022-12-29T10:50:25;3.43;;;1.27;;
38901;SDS011;24661;53.566;9.910;2022-12-29T10:52:52;10.13;;;1.70;;
38901;SDS011;24661;53.566;9.910;2022-12-29T10:55:21;6.93;;;1.37;;
38901;SDS011;24661;53.566;9.910;2022-12-29T10:57:49;4.73;;;1.73;;
38901;SDS011;24661;53.566;9.910;2022-12-29T11:00:21;7.93;;;1.40;;
38901;SDS011;24661;53.566;9.910;2022-12-29T11:08:03;2.97;;;0.97;;
38901;SDS011;24661;53.566;9.910;2022-12-29T11:10:37;4.53;;;1.43;;
38901;SDS011;24661;53.566;9.910;2022-12-29T11:13:18;6.50;;;1.60;;
38901;SDS011;24661;53.566;9.910;2022-12-29T11:15:50;1.87;;;1.00;;
38901;SDS011;24661;53.566;9.910;2022-12-29T11:18:20;4.53;;;1.27;;
38901;SDS011;24661;53.566;9.910;2022-12-29T11:20:46;7.17;;;1.47;;
38901;SDS011;24661;53.566;9.910;2022-12-29T11:23:22;4.20;;;0.80;;
38901;SDS011;24661;53.566;9.910;2022-12-29T11:31:44;3.63;;;0.97;;
38901;SDS011;24661;53.566;9.910;2022-12-29T11:34:19;3.87;;;1.10;;
38901;SDS011;24661;53.566;9.910;2022-12-29T11:36:49;4.73;;;1.33;;
38901;SDS011;24661;53.566;9.910;2022-12-29T11:39:39;4.03;;;1.13;;
38901;SDS011;24661;53.566;9.910;2022-12-29T11:42:22;4.87;;;1.30;;
38901;SDS011;24661;53.566;9.910;2022-12-29T11:44:56;3.67;;;1.47;;
38901;SDS011;24661;53.566;9.910;2022-12-29T11:47:29;4.23;;;0.80;;
38901;SDS011;24661;53.566;9.910;2022-12-29T11:50:02;2.90;;;1.07;;
38901;SDS011;24661;53.566;9.910;2022-12-29T11:52:32;1.83;;;0.77;;
38901;SDS011;24661;53.566;9.910;2022-12-29T11:55:02;3.10;;;1.40;;
38901;SDS011;24661;53.566;9.910;2022-12-29T11:57:30;3.70;;;1.23;;
38901;SDS011;24661;53.566;9.910;2022-12-29T12:00:00;5.93;;;1.43;;
38901;SDS011;24661;53.566;9.910;2022-12-29T12:08:39;3.03;;;0.87;;
38901;SDS011;24661;53.566;9.910;2022-12-29T12:10:43;2.80;;;1.03;;
38901;SDS011;24661;53.566;9.910;2022-12-29T12:15:50;6.00;;;1.00;;
38901;SDS011;24661;53.566;9.910;2022-12-29T12:18:31;7.80;;;2.00;;
38901;SDS011;24661;53.566;9.910;2022-12-29T12:24:05;5.40;;;1.40;;
38901;SDS011;24661;53.566;9.910;2022-12-29T12:26:59;5.73;;;1.17;;
38901;SDS011;24661;53.566;9.910;2022-12-29T12:29:38;12.17;;;2.80;;
38901;SDS011;24661;53.566;9.910;2022-12-29T12:32:13;6.40;;;1.23;;
38901;SDS011;24661;53.566;9.910;2022-12-29T12:34:47;5.43;;;1.57;;
38901;SDS011;24661;53.566;9.910;2022-12-29T12:39:55;7.87;;;1.30;;
38901;SDS011;24661;53.566;9.910;2022-12-29T12:46:19;6.40;;;1.27;;
38901;SDS011;24661;53.566;9.910;2022-12-29T13:00:21;6.50;;;1.23;;
38901;SDS011;24661;53.566;9.910;2022-12-29T13:22:29;7.23;;;1.87;;
38901;SDS011;24661;53.566;9.910;2022-12-29T13:25:14;7.00;;;1.93;;
38901;SDS011;24661;53.566;9.910;2022-12-29T13:30:23;8.93;;;1.40;;
38901;SDS011;24661;53.566;9.910;2022-12-29T13:33:24;4.87;;;1.40;;
38901;SDS011;24661;53.566;9.910;2022-12-29T13:36:15;4.33;;;1.17;;
38901;SDS011;24661;53.566;9.910;2022-12-29T13:38:50;5.03;;;1.30;;
38901;SDS011;24661;53.566;9.910;2022-12-29T13:44:00;6.37;;;1.43;;
38901;SDS011;24661;53.566;9.910;2022-12-29T13:46:29;9.87;;;1.30;;
38901;SDS011;24661;53.566;9.910;2022-12-29T13:49:06;5.57;;;1.30;;
38901;SDS011;24661;53.566;9.910;2022-12-29T13:51:41;11.43;;;2.40;;
38901;SDS011;24661;53.566;9.910;2022-12-29T14:00:01;6.60;;;1.30;;
38901;SDS011;24661;53.566;9.910;2022-12-29T14:05:29;6.47;;;1.53;;
38901;SDS011;24661;53.566;9.910;2022-12-29T14:07:59;4.63;;;1.10;;
38901;SDS011;24661;53.566;9.910;2022-12-29T14:10:45;5.87;;;2.03;;
38901;SDS011;24661;53.566;9.910;2022-12-29T14:13:17;5.10;;;1.07;;
38901;SDS011;24661;53.566;9.910;2022-12-29T14:15:45;3.17;;;0.70;;
38901;SDS011;24661;53.566;9.910;2022-12-29T14:18:21;3.87;;;1.67;;
38901;SDS011;24661;53.566;9.910;2022-12-29T14:20:56;2.07;;;0.80;;
38901;SDS011;24661;53.566;9.910;2022-12-29T14:23:27;3.73;;;0.77;;
38901;SDS011;24661;53.566;9.910;2022-12-29T14:28:32;4.30;;;1.17;;
38901;SDS011;24661;53.566;9.910;2022-12-29T14:30:59;5.60;;;1.20;;
38901;SDS011;24661;53.566;9.910;2022-12-29T14:33:31;3.23;;;1.20;;
38901;SDS011;24661;53.566;9.910;2022-12-29T14:36:41;6.70;;;1.37;;
38901;SDS011;24661;53.566;9.910;2022-12-29T14:38:58;4.43;;;1.13;;
38901;SDS011;24661;53.566;9.910;2022-12-29T14:41:26;3.70;;;1.13;;
38901;SDS011;24661;53.566;9.910;2022-12-29T14:44:37;5.80;;;1.10;;
38901;SDS011;24661;53.566;9.910;2022-12-29T14:46:46;6.70;;;1.10;;
38901;SDS011;24661;53.566;9.910;2022-12-29T14:49:21;6.10;;;1.37;;
38901;SDS011;24661;53.566;9.910;2022-12-29T14:51:53;7.07;;;1.47;;
38901;SDS011;24661;53.566;9.910;2022-12-29T14:57:05;5.03;;;1.40;;
38901;SDS011;24661;53.566;9.910;2022-12-29T14:59:34;5.53;;;1.60;;
38901;SDS011;24661;53.566;9.910;2022-12-29T15:02:04;3.43;;;1.73;;
38901;SDS011;24661;53.566;9.910;2022-12-29T15:04:40;4.60;;;1.77;;
38901;SDS011;24661;53.566;9.910;2022-12-29T15:07:08;7.87;;;2.27;;
38901;SDS011;24661;53.566;9.910;2022-12-29T15:12:19;7.70;;;1.90;;
38901;SDS011;24661;53.566;9.910;2022-12-29T15:14:52;2.33;;;1.30;;
38901;SDS011;24661;53.566;9.910;2022-12-29T15:17:30;4.80;;;1.10;;
38901;SDS011;24661;53.566;9.910;2022-12-29T15:20:14;4.87;;;1.40;;
38901;SDS011;24661;53.566;9.910;2022-12-29T15:22:52;6.83;;;2.20;;
38901;SDS011;24661;53.566;9.910;2022-12-29T15:25:33;9.80;;;2.47;;
38901;SDS011;24661;53.566;9.910;2022-12-29T15:28:02;7.17;;;1.70;;
38901;SDS011;24661;53.566;9.910;2022-12-29T15:30:29;3.27;;;1.40;;
38901;SDS011;24661;53.566;9.910;2022-12-29T15:32:55;4.77;;;1.43;;
38901;SDS011;24661;53.566;9.910;2022-12-29T15:35:36;12.80;;;2.27;;
38901;SDS011;24661;53.566;9.910;2022-12-29T15:40:51;6.27;;;1.53;;
38901;SDS011;24661;53.566;9.910;2022-12-29T15:43:32;9.67;;;1.97;;
38901;SDS011;24661;53.566;9.910;2022-12-29T15:46:15;7.20;;;1.30;;
38901;SDS011;24661;53.566;9.910;2022-12-29T15:48:40;6.00;;;1.80;;
38901;SDS011;24661;53.566;9.910;2022-12-29T15:51:11;7.40;;;1.90;;
38901;SDS011;24661;53.566;9.910;2022-12-29T15:53:42;7.07;;;1.90;;
38901;SDS011;24661;53.566;9.910;2022-12-29T15:56:12;3.97;;;1.80;;
38901;SDS011;24661;53.566;9.910;2022-12-29T15:58:42;5.53;;;2.70;;
38901;SDS011;24661;53.566;9.910;2022-12-29T16:01:17;7.03;;;1.70;;
38901;SDS011;24661;53.566;9.910;2022-12-29T16:03:55;7.97;;;1.77;;
38901;SDS011;24661;53.566;9.910;2022-12-29T16:08:57;6.10;;;2.10;;
38901;SDS011;24661;53.566;9.910;2022-12-29T16:11:26;4.70;;;2.17;;
38901;SDS011;24661;53.566;9.910;2022-12-29T16:14:29;5.63;;;1.97;;
38901;SDS011;24661;53.566;9.910;2022-12-29T16:17:03;10.13;;;2.47;;
38901;SDS011;24661;53.566;9.910;2022-12-29T16:19:38;10.57;;;2.93;;
38901;SDS011;24661;53.566;9.910;2022-12-29T16:22:12;11.10;;;2.80;;
38901;SDS011;24661;53.566;9.910;2022-12-29T16:24:45;8.03;;;2.23;;
38901;SDS011;24661;53.566;9.910;2022-12-29T16:27:21;13.43;;;4.00;;
38901;SDS011;24661;53.566;9.910;2022-12-29T16:29:53;7.03;;;1.67;;
38901;SDS011;24661;53.566;9.910;2022-12-29T16:32:30;7.53;;;1.90;;
38901;SDS011;24661;53.566;9.910;2022-12-29T16:37:43;7.70;;;2.30;;
38901;SDS011;24661;53.566;9.910;2022-12-29T16:42:55;17.83;;;2.20;;
38901;SDS011;24661;53.566;9.910;2022-12-29T16:50:35;5.30;;;2.40;;
38901;SDS011;24661;53.566;9.910;2022-12-29T16:53:03;5.17;;;2.50;;
38901;SDS011;24661;53.566;9.910;2022-12-29T16:55:31;7.53;;;3.07;;
38901;SDS011;24661;53.566;9.910;2022-12-29T16:57:57;9.80;;;2.30;;
38901;SDS011;24661;53.566;9.910;2022-12-29T17:00:26;14.10;;;2.10;;
38901;SDS011;24661;53.566;9.910;2022-12-29T17:03:01;7.03;;;2.07;;
38901;SDS011;24661;53.566;9.910;2022-12-29T17:05:28;13.53;;;2.97;;
38901;SDS011;24661;53.566;9.910;2022-12-29T17:07:53;6.13;;;2.30;;
38901;SDS011;24661;53.566;9.910;2022-12-29T17:10:25;6.50;;;2.07;;
38901;SDS011;24661;53.566;9.910;2022-12-29T17:13:11;5.63;;;2.50;;
38901;SDS011;24661;53.566;9.910;2022-12-29T17:15:37;6.87;;;2.20;;
38901;SDS011;24661;53.566;9.910;2022-12-29T17:18:02;6.07;;;1.83;;
38901;SDS011;24661;53.566;9.910;2022-12-29T17:20:29;6.37;;;2.07;;
38901;SDS011;24661;53.566;9.910;2022-12-29T17:22:55;7.93;;;2.37;;
38901;SDS011;24661;53.566;9.910;2022-12-29T17:25:26;6.77;;;2.40;;
38901;SDS011;24661;53.566;9.910;2022-12-29T17:27:59;9.13;;;2.97;;
38901;SDS011;24661;53.566;9.910;2022-12-29T17:30:42;8.60;;;2.50;;
38901;SDS011;24661;53.566;9.910;2022-12-29T17:33:12;6.83;;;2.23;;
38901;SDS011;24661;53.566;9.910;2022-12-29T17:35:40;6.23;;;1.87;;